Terminal Aerodrome Forecast
Issued by NWS

Home | Current Version | Previous Version | Text Only | Print | Product List | Glossary On
Versions: 1 2 3 4 5 6 7 8 9 10 11 12 13 14 15 16 17 18 19 20 21 22
136
FTUS46 KLOX 291739
TAFSBA
TAF
KSBA 291739Z 2918/3018 VRB03KT 5SM BR BKN006 OVC022
     FM291900 VRB03KT P6SM SCT010 OVC025
     FM292300 25008KT P6SM SCT015
     FM300100 VRB03KT P6SM BKN010
     FM300700 VRB03KT 5SM BR OVC006=

USA.gov is the U.S. government's official web portal to all federal, state and local government web resources and services.